Time,TemperatureF,DewpointF,PressureIn,WindDirection,WindDirectionDegrees,WindSpeedMPH,WindSpeedGustMPH,Humidity,HourlyPrecipIn,Conditions,Clouds,dailyrainin,SoftwareType,DateUTC
2013-07-23 00:05:00,46.7,46.7,30.06,NNW,327,6.0,7.0,100,0.00,,,0.00,Wunderground v.1.15,2013-07-23 08:05:00,
2013-07-23 00:15:00,46.8,46.8,30.06,North,352,6.0,7.0,100,0.00,,,0.00,Wunderground v.1.15,2013-07-23 08:15:00,
2013-07-23 00:25:00,46.7,46.7,30.06,North,355,6.0,9.0,100,0.00,,,0.00,Wunderground v.1.15,2013-07-23 08:25:00,
2013-07-23 00:35:00,46.7,46.7,30.06,NNW,344,7.0,7.0,100,0.00,,,0.00,Wunderground v.1.15,2013-07-23 08:35:00,
2013-07-23 00:45:00,46.8,46.8,30.06,NNW,341,6.0,8.0,100,0.00,,,0.00,Wunderground v.1.15,2013-07-23 08:45:00,
2013-07-23 00:55:00,46.8,46.8,30.06,NNW,341,5.0,6.0,100,0.00,,,0.00,Wunderground v.1.15,2013-07-23 08:55:00,
2013-07-23 01:00:00,46.7,46.7,30.06,NNW,335,5.0,5.0,100,0.00,,,0.00,Wunderground v.1.15,2013-07-23 09:00:00,
2013-07-23 01:10:00,46.7,46.7,30.06,NNW,331,3.0,3.0,100,0.00,,,0.00,Wunderground v.1.15,2013-07-23 09:10:00,
2013-07-23 01:20:00,46.4,46.4,30.07,North,349,4.0,6.0,100,0.00,,,0.00,Wunderground v.1.15,2013-07-23 09:20:00,
2013-07-23 01:25:00,46.4,46.4,30.07,NW,325,5.0,6.0,100,0.00,,,0.00,Wunderground v.1.15,2013-07-23 09:25:00,
2013-07-23 01:35:00,46.4,46.4,30.07,NNW,332,4.0,4.0,100,0.00,,,0.00,Wunderground v.1.15,2013-07-23 09:35:00,
2013-07-23 01:45:00,46.5,46.5,30.06,NNW,334,3.0,4.0,100,0.00,,,0.00,Wunderground v.1.15,2013-07-23 09:45:00,
2013-07-23 01:55:00,46.5,46.5,30.06,NNW,335,3.0,5.0,100,0.00,,,0.00,Wunderground v.1.15,2013-07-23 09:55:00,
2013-07-23 02:05:00,46.4,46.4,30.06,NNW,348,4.0,6.0,100,0.00,,,0.00,Wunderground v.1.15,2013-07-23 10:05:00,
2013-07-23 02:10:00,46.4,46.4,30.06,NNW,348,4.0,5.0,100,0.00,,,0.00,Wunderground v.1.15,2013-07-23 10:10:00,
2013-07-23 02:20:00,46.5,46.5,30.06,NNW,338,4.0,4.0,100,0.00,,,0.00,Wunderground v.1.15,2013-07-23 10:20:00,
2013-07-23 02:30:00,46.5,46.5,30.07,NNW,340,3.0,3.0,100,0.00,,,0.00,Wunderground v.1.15,2013-07-23 10:30:00,
2013-07-23 02:40:00,46.4,46.4,30.07,NNW,341,3.0,3.0,100,0.00,,,0.00,Wunderground v.1.15,2013-07-23 10:40:00,
2013-07-23 02:45:00,46.4,46.4,30.07,NNW,338,3.0,3.0,100,0.00,,,0.00,Wunderground v.1.15,2013-07-23 10:45:00,
2013-07-23 02:55:00,46.2,46.2,30.07,NNW,338,2.0,3.0,100,0.00,,,0.00,Wunderground v.1.15,2013-07-23 10:55:00,
2013-07-23 03:05:00,46.2,46.2,30.07,NNW,335,1.0,1.0,100,0.00,,,0.00,Wunderground v.1.15,2013-07-23 11:05:00,
2013-07-23 03:10:00,46.2,46.2,30.07,NNW,335,1.0,1.0,100,0.00,,,0.00,Wunderground v.1.15,2013-07-23 11:10:00,
2013-07-23 03:20:00,46.2,46.2,30.07,NNW,340,3.0,4.0,100,0.00,,,0.00,Wunderground v.1.15,2013-07-23 11:20:00,
2013-07-23 03:30:00,46.4,46.4,30.07,NNW,340,2.0,2.0,100,0.00,,,0.00,Wunderground v.1.15,2013-07-23 11:30:00,
2013-07-23 03:35:00,46.2,46.2,30.07,NNW,340,2.0,2.0,100,0.00,,,0.00,Wunderground v.1.15,2013-07-23 11:35:00,
2013-07-23 03:40:00,46.1,46.1,30.07,NNW,340,2.0,3.0,100,0.00,,,0.00,Wunderground v.1.15,2013-07-23 11:40:00,
2013-07-23 03:50:00,46.1,46.1,30.07,NNW,340,1.0,2.0,100,0.00,,,0.00,Wunderground v.1.15,2013-07-23 11:50:00,
2013-07-23 04:00:00,46.1,46.1,30.07,NNW,340,2.0,2.0,100,0.00,,,0.00,Wunderground v.1.15,2013-07-23 12:00:00,
2013-07-23 04:10:00,46.1,46.1,30.07,NNW,340,2.0,2.0,100,0.00,,,0.00,Wunderground v.1.15,2013-07-23 12:10:00,
2013-07-23 04:20:00,46.2,46.2,30.07,NNW,340,3.0,3.0,100,0.00,,,0.00,Wunderground v.1.15,2013-07-23 12:20:00,
2013-07-23 04:30:00,46.1,46.1,30.07,NNW,327,3.0,5.0,100,0.00,,,0.00,Wunderground v.1.15,2013-07-23 12:30:00,
2013-07-23 04:35:00,45.8,45.8,30.07,NNW,327,3.0,5.0,100,0.00,,,0.00,Wunderground v.1.15,2013-07-23 12:35:00,
2013-07-23 04:45:00,45.7,45.7,30.07,NNW,348,3.0,5.0,100,0.00,,,0.00,Wunderground v.1.15,2013-07-23 12:45:00,
2013-07-23 04:55:00,45.8,45.8,30.07,NNW,342,4.0,7.0,100,0.00,,,0.00,Wunderground v.1.15,2013-07-23 12:55:00,
2013-07-23 05:05:00,45.7,45.7,30.07,North,358,5.0,7.0,100,0.00,,,0.00,Wunderground v.1.15,2013-07-23 13:05:00,
2013-07-23 05:10:00,45.7,45.7,30.07,North,1,5.0,6.0,100,0.00,,,0.00,Wunderground v.1.15,2013-07-23 13:10:00,
2013-07-23 05:20:00,45.5,45.5,30.07,North,4,4.0,4.0,100,0.00,,,0.00,Wunderground v.1.15,2013-07-23 13:20:00,
2013-07-23 05:40:00,45.7,45.7,30.07,NNW,327,4.0,4.0,100,0.00,,,0.00,Wunderground v.1.15,2013-07-23 13:40:00,
2013-07-23 05:45:00,45.7,45.7,30.07,NNW,332,4.0,4.0,100,0.00,,,0.00,Wunderground v.1.15,2013-07-23 13:45:00,
2013-07-23 05:50:00,45.7,45.7,30.07,NNW,330,3.0,3.0,100,0.00,,,0.00,Wunderground v.1.15,2013-07-23 13:50:00,
2013-07-23 06:00:00,45.7,45.7,30.07,NNW,330,2.0,2.0,100,0.00,,,0.00,Wunderground v.1.15,2013-07-23 14:00:00,
2013-07-23 06:10:00,45.4,45.4,30.07,NNW,330,2.0,2.0,100,0.00,,,0.00,Wunderground v.1.15,2013-07-23 14:10:00,
2013-07-23 06:20:00,45.5,45.5,30.07,NNW,330,2.0,2.0,100,0.00,,,0.00,Wunderground v.1.15,2013-07-23 14:20:00,
2013-07-23 06:25:00,45.7,45.7,30.07,NNW,330,1.0,2.0,100,0.00,,,0.00,Wunderground v.1.15,2013-07-23 14:25:00,
2013-07-23 06:35:00,45.4,45.4,30.07,NNW,330,0.0,1.0,100,0.00,,,0.00,Wunderground v.1.15,2013-07-23 14:35:00,
2013-07-23 06:40:00,45.4,45.4,30.07,NNW,330,0.0,0.0,100,0.00,,,0.00,Wunderground v.1.15,2013-07-23 14:40:00,
2013-07-23 06:50:00,45.2,45.2,30.07,NNW,330,0.0,2.0,100,0.00,,,0.00,Wunderground v.1.15,2013-07-23 14:50:00,
2013-07-23 07:00:00,45.2,45.2,30.07,NNW,330,0.0,3.0,100,0.00,,,0.00,Wunderground v.1.15,2013-07-23 15:00:00,
2013-07-23 07:05:00,45.1,45.1,30.07,NNW,330,1.0,3.0,100,0.00,,,0.00,Wunderground v.1.15,2013-07-23 15:05:00,
2013-07-23 07:15:00,44.9,44.9,30.07,NNW,337,3.0,3.0,100,0.00,,,0.00,Wunderground v.1.15,2013-07-23 15:15:00,
2013-07-23 07:25:00,44.9,44.9,30.07,NNW,338,2.0,4.0,100,0.00,,,0.00,Wunderground v.1.15,2013-07-23 15:25:00,
2013-07-23 07:35:00,45.1,45.1,30.07,NNW,338,2.0,2.0,100,0.00,,,0.00,Wunderground v.1.15,2013-07-23 15:35:00,
2013-07-23 07:45:00,45.1,45.1,30.07,NNW,338,1.0,1.0,100,0.00,,,0.00,Wunderground v.1.15,2013-07-23 15:45:00,
2013-07-23 07:55:00,45.4,45.4,30.07,NNW,338,1.0,2.0,100,0.00,,,0.00,Wunderground v.1.15,2013-07-23 15:55:00,
2013-07-23 08:05:00,45.5,45.5,30.07,NNW,338,0.0,1.0,100,0.00,,,0.00,Wunderground v.1.15,2013-07-23 16:05:00,
2013-07-23 08:10:00,45.5,45.5,30.07,NNW,338,0.0,1.0,100,0.00,,,0.00,Wunderground v.1.15,2013-07-23 16:10:00,
2013-07-23 08:20:00,45.7,45.7,30.07,NNW,338,0.0,1.0,100,0.00,,,0.00,Wunderground v.1.15,2013-07-23 16:20:00,
2013-07-23 08:30:00,45.8,45.8,30.07,NNW,338,0.0,0.0,100,0.00,,,0.00,Wunderground v.1.15,2013-07-23 16:30:00,
2013-07-23 08:35:00,46.0,46.0,30.07,NNW,338,0.0,1.0,100,0.00,,,0.00,Wunderground v.1.15,2013-07-23 16:35:00,
2013-07-23 08:45:00,45.7,45.7,30.07,NNW,338,0.0,1.0,100,0.00,,,0.00,Wunderground v.1.15,2013-07-23 16:45:00,
2013-07-23 08:50:00,45.7,45.7,30.07,NNW,338,0.0,2.0,100,0.00,,,0.00,Wunderground v.1.15,2013-07-23 16:50:00,
2013-07-23 09:00:00,45.8,45.8,30.07,NNW,338,0.0,0.0,100,0.00,,,0.00,Wunderground v.1.15,2013-07-23 17:00:00,
2013-07-23 09:10:00,46.0,46.0,30.07,NNW,338,0.0,0.0,100,0.00,,,0.00,Wunderground v.1.15,2013-07-23 17:10:00,
2013-07-23 09:20:00,46.0,46.0,30.07,NNW,338,0.0,0.0,100,0.00,,,0.00,Wunderground v.1.15,2013-07-23 17:20:00,
2013-07-23 09:30:00,46.1,46.1,30.07,NNW,338,0.0,0.0,100,0.00,,,0.00,Wunderground v.1.15,2013-07-23 17:30:00,
2013-07-23 09:40:00,46.2,46.2,30.07,NNW,338,0.0,0.0,100,0.00,,,0.00,Wunderground v.1.15,2013-07-23 17:40:00,
2013-07-23 09:55:00,46.7,46.7,30.07,NNW,338,0.0,0.0,100,0.00,,,0.00,Wunderground v.1.15,2013-07-23 17:55:00,
2013-07-23 10:00:00,46.8,46.8,30.07,NNW,338,0.0,0.0,100,0.00,,,0.00,Wunderground v.1.15,2013-07-23 18:00:00,
2013-07-23 10:10:00,47.1,47.1,30.07,NNW,338,0.0,0.0,100,0.00,,,0.00,Wunderground v.1.15,2013-07-23 18:10:00,
2013-07-23 10:20:00,47.3,47.3,30.07,NNW,338,0.0,0.0,100,0.00,,,0.00,Wunderground v.1.15,2013-07-23 18:20:00,
2013-07-23 10:25:00,47.4,47.4,30.07,NNW,338,0.0,1.0,100,0.00,,,0.00,Wunderground v.1.15,2013-07-23 18:25:00,
2013-07-23 10:35:00,47.6,47.6,30.07,NNW,338,0.0,0.0,100,0.00,,,0.00,Wunderground v.1.15,2013-07-23 18:35:00,
2013-07-23 10:40:00,47.9,47.9,30.07,NNW,338,0.0,0.0,100,0.00,,,0.00,Wunderground v.1.15,2013-07-23 18:40:00,
2013-07-23 10:50:00,48.2,48.2,30.07,NNW,338,0.0,0.0,100,0.00,,,0.00,Wunderground v.1.15,2013-07-23 18:50:00,
2013-07-23 11:00:00,48.3,48.3,30.07,NNW,338,0.0,0.0,100,0.00,,,0.00,Wunderground v.1.15,2013-07-23 19:00:00,
2013-07-23 11:05:00,48.5,48.5,30.07,NNW,338,0.0,0.0,100,0.00,,,0.00,Wunderground v.1.15,2013-07-23 19:05:00,
2013-07-23 11:15:00,48.0,48.0,30.07,NNW,338,1.0,1.0,100,0.00,,,0.00,Wunderground v.1.15,2013-07-23 19:15:00,
2013-07-23 11:25:00,48.2,48.2,30.07,NNW,338,2.0,2.0,100,0.00,,,0.00,Wunderground v.1.15,2013-07-23 19:25:00,
2013-07-23 11:35:00,48.3,48.3,30.08,NNW,338,2.0,3.0,100,0.00,,,0.00,Wunderground v.1.15,2013-07-23 19:35:00,
2013-07-23 11:45:00,48.8,48.8,30.07,NNW,338,1.0,5.0,100,0.00,,,0.00,Wunderground v.1.15,2013-07-23 19:45:00,
2013-07-23 11:50:00,48.9,48.9,30.07,NNW,338,2.0,2.0,100,0.00,,,0.00,Wunderground v.1.15,2013-07-23 19:50:00,
2013-07-23 12:00:00,49.1,49.1,30.07,NNW,338,2.0,2.0,100,0.00,,,0.00,Wunderground v.1.15,2013-07-23 20:00:00,
2013-07-23 12:10:00,49.5,49.5,30.07,NNW,338,2.0,6.0,100,0.00,,,0.00,Wunderground v.1.15,2013-07-23 20:10:00,
2013-07-23 12:20:00,49.6,49.6,30.07,NNW,338,3.0,3.0,100,0.00,,,0.00,Wunderground v.1.15,2013-07-23 20:20:00,
2013-07-23 12:30:00,50.2,50.2,30.07,NNW,338,1.0,1.0,100,0.00,,,0.00,Wunderground v.1.15,2013-07-23 20:30:00,
2013-07-23 12:40:00,50.1,49.6,30.07,NNW,338,1.0,1.0,98,0.00,,,0.00,Wunderground v.1.15,2013-07-23 20:40:00,
2013-07-23 12:50:00,50.7,49.9,30.07,NNW,338,1.0,2.0,97,0.00,,,0.00,Wunderground v.1.15,2013-07-23 20:50:00,
2013-07-23 12:55:00,51.0,50.2,30.07,NNW,338,1.0,2.0,97,0.00,,,0.00,Wunderground v.1.15,2013-07-23 20:55:00,
2013-07-23 13:05:00,51.4,50.0,30.07,NNW,337,1.0,4.0,95,0.00,,,0.00,Wunderground v.1.15,2013-07-23 21:05:00,
2013-07-23 13:10:00,51.6,50.2,30.07,NNW,337,1.0,2.0,95,0.00,,,0.00,Wunderground v.1.15,2013-07-23 21:10:00,
2013-07-23 13:20:00,51.3,49.9,30.07,NNW,337,4.0,5.0,95,0.00,,,0.00,Wunderground v.1.15,2013-07-23 21:20:00,
2013-07-23 13:35:00,51.9,49.9,30.07,NNW,335,2.0,2.0,93,0.00,,,0.00,Wunderground v.1.15,2013-07-23 21:35:00,
2013-07-23 13:45:00,52.0,50.0,30.06,NNW,338,3.0,6.0,93,0.00,,,0.00,Wunderground v.1.15,2013-07-23 21:45:00,
2013-07-23 13:55:00,52.3,48.9,30.06,NNW,341,4.0,6.0,88,0.00,,,0.00,Wunderground v.1.15,2013-07-23 21:55:00,
2013-07-23 14:00:00,52.0,48.9,30.06,NNW,345,4.0,8.0,89,0.00,,,0.00,Wunderground v.1.15,2013-07-23 22:00:00,
2013-07-23 14:10:00,52.5,49.0,30.06,NNW,332,4.0,4.0,88,0.00,,,0.00,Wunderground v.1.15,2013-07-23 22:10:00,
2013-07-23 14:15:00,52.6,49.1,30.07,NNW,332,4.0,6.0,88,0.00,,,0.00,Wunderground v.1.15,2013-07-23 22:15:00,
2013-07-23 14:25:00,53.2,49.4,30.07,NNW,340,4.0,5.0,87,0.00,,,0.00,Wunderground v.1.15,2013-07-23 22:25:00,
2013-07-23 14:30:00,52.9,49.1,30.07,NNW,340,4.0,7.0,87,0.00,,,0.00,Wunderground v.1.15,2013-07-23 22:30:00,
2013-07-23 14:45:00,52.6,49.1,30.07,NNW,335,6.0,7.0,88,0.00,,,0.00,Wunderground v.1.15,2013-07-23 22:45:00,
2013-07-23 14:55:00,53.3,49.5,30.07,NW,323,5.0,6.0,87,0.00,,,0.00,Wunderground v.1.15,2013-07-23 22:55:00,
2013-07-23 15:00:00,53.3,49.2,30.06,NNW,332,6.0,6.0,86,0.00,,,0.00,Wunderground v.1.15,2013-07-23 23:00:00,
2013-07-23 15:10:00,53.5,49.4,30.06,North,349,6.0,6.0,86,0.00,,,0.00,Wunderground v.1.15,2013-07-23 23:10:00,
2013-07-23 15:20:00,54.4,49.7,30.06,NNW,328,4.0,4.0,84,0.00,,,0.00,Wunderground v.1.15,2013-07-23 23:20:00,
2013-07-23 15:35:00,54.8,50.1,30.06,North,352,6.0,7.0,84,0.00,,,0.00,Wunderground v.1.15,2013-07-23 23:35:00,
2013-07-23 15:40:00,54.8,50.1,30.06,NNW,334,6.0,6.0,84,0.00,,,0.00,Wunderground v.1.15,2013-07-23 23:40:00,
2013-07-23 15:55:00,55.0,49.9,30.06,NW,323,7.0,7.0,83,0.00,,,0.00,Wunderground v.1.15,2013-07-23 23:55:00,
2013-07-23 16:05:00,55.7,50.6,30.06,NNW,328,4.0,8.0,83,0.00,,,0.00,Wunderground v.1.15,2013-07-24 00:05:00,
2013-07-23 16:15:00,56.0,50.6,30.06,NNW,332,3.0,5.0,82,0.00,,,0.00,Wunderground v.1.15,2013-07-24 00:15:00,
2013-07-23 16:20:00,56.0,50.9,30.06,North,354,4.0,7.0,83,0.00,,,0.00,Wunderground v.1.15,2013-07-24 00:20:00,
2013-07-23 16:30:00,56.7,50.9,30.05,NNW,345,5.0,5.0,81,0.00,,,0.00,Wunderground v.1.15,2013-07-24 00:30:00,
2013-07-23 16:35:00,56.9,51.1,30.05,North,356,5.0,5.0,81,0.00,,,0.00,Wunderground v.1.15,2013-07-24 00:35:00,
2013-07-23 16:40:00,56.7,50.6,30.05,NNW,342,5.0,7.0,80,0.00,,,0.00,Wunderground v.1.15,2013-07-24 00:40:00,
2013-07-23 16:55:00,57.5,51.4,30.05,NW,324,4.0,6.0,80,0.00,,,0.00,Wunderground v.1.15,2013-07-24 00:55:00,
2013-07-23 17:05:00,57.3,50.8,30.05,NNW,338,4.0,4.0,79,0.00,,,0.00,Wunderground v.1.15,2013-07-24 01:05:00,
2013-07-23 17:15:00,58.0,51.9,30.05,NNW,334,2.0,3.0,80,0.00,,,0.00,Wunderground v.1.15,2013-07-24 01:15:00,
2013-07-23 17:20:00,59.0,52.8,30.05,NNW,332,0.0,1.0,80,0.00,,,0.00,Wunderground v.1.15,2013-07-24 01:20:00,
2013-07-23 17:30:00,58.9,52.1,30.05,SSE,164,4.0,4.0,78,0.00,,,0.00,Wunderground v.1.15,2013-07-24 01:30:00,
2013-07-23 17:40:00,59.9,52.7,30.05,South,181,2.0,3.0,77,0.00,,,0.00,Wunderground v.1.15,2013-07-24 01:40:00,
2013-07-23 17:50:00,60.1,52.1,30.05,NNW,338,1.0,5.0,75,0.00,,,0.00,Wunderground v.1.15,2013-07-24 01:50:00,
2013-07-23 18:05:00,56.7,50.9,30.05,NNW,327,8.0,8.0,81,0.00,,,0.00,Wunderground v.1.15,2013-07-24 02:05:00,
2013-07-23 18:10:00,56.5,50.7,30.05,NNW,327,9.0,9.0,81,0.00,,,0.00,Wunderground v.1.15,2013-07-24 02:10:00,
2013-07-23 18:20:00,56.2,50.4,30.04,NNW,340,9.0,10.0,81,0.00,,,0.00,Wunderground v.1.15,2013-07-24 02:20:00,
2013-07-23 18:30:00,56.0,50.6,30.04,NNW,347,10.0,12.0,82,0.00,,,0.00,Wunderground v.1.15,2013-07-24 02:30:00,
2013-07-23 18:40:00,55.7,50.3,30.04,North,355,11.0,12.0,82,0.00,,,0.00,Wunderground v.1.15,2013-07-24 02:40:00,
2013-07-23 19:10:00,54.8,50.1,30.05,NNW,330,13.0,16.0,84,0.00,,,0.00,Wunderground v.1.15,2013-07-24 03:10:00,
2013-07-23 19:15:00,53.6,48.9,30.05,North,354,13.0,16.0,84,0.00,,,0.00,Wunderground v.1.15,2013-07-24 03:15:00,
2013-07-23 19:30:00,53.8,49.7,30.05,NNW,338,12.0,12.0,86,0.00,,,0.00,Wunderground v.1.15,2013-07-24 03:30:00,
2013-07-23 19:40:00,54.4,49.3,30.05,North,4,9.0,9.0,83,0.00,,,0.00,Wunderground v.1.15,2013-07-24 03:40:00,
2013-07-23 19:50:00,54.5,49.8,30.05,North,356,10.0,13.0,84,0.00,,,0.00,Wunderground v.1.15,2013-07-24 03:50:00,
2013-07-23 20:00:00,55.0,49.9,30.05,NNW,344,9.0,9.0,83,0.00,,,0.00,Wunderground v.1.15,2013-07-24 04:00:00,
2013-07-23 20:05:00,55.3,50.2,30.05,North,358,9.0,12.0,83,0.00,,,0.00,Wunderground v.1.15,2013-07-24 04:05:00,
2013-07-23 20:10:00,55.4,50.0,30.05,NNW,338,9.0,9.0,82,0.00,,,0.00,Wunderground v.1.15,2013-07-24 04:10:00,
2013-07-23 20:15:00,55.0,49.9,30.04,NNW,345,8.0,11.0,83,0.00,,,0.00,Wunderground v.1.15,2013-07-24 04:15:00,
2013-07-23 20:20:00,54.8,50.1,30.04,North,358,9.0,9.0,84,0.00,,,0.00,Wunderground v.1.15,2013-07-24 04:20:00,
2013-07-23 20:25:00,54.7,50.0,30.04,NNW,338,9.0,10.0,84,0.00,,,0.00,Wunderground v.1.15,2013-07-24 04:25:00,
2013-07-23 20:35:00,54.4,50.0,30.04,North,354,9.0,13.0,85,0.00,,,0.00,Wunderground v.1.15,2013-07-24 04:35:00,
2013-07-23 20:40:00,54.1,49.7,30.04,NNW,347,10.0,10.0,85,0.00,,,0.00,Wunderground v.1.15,2013-07-24 04:40:00,
2013-07-23 20:45:00,54.1,49.7,30.04,NNW,334,10.0,10.0,85,0.00,,,0.00,Wunderground v.1.15,2013-07-24 04:45:00,
2013-07-23 20:55:00,53.3,49.2,30.04,North,349,10.0,13.0,86,0.00,,,0.00,Wunderground v.1.15,2013-07-24 04:55:00,
2013-07-23 21:00:00,53.2,49.1,30.04,NNW,344,9.0,9.0,86,0.00,,,0.00,Wunderground v.1.15,2013-07-24 05:00:00,
2013-07-23 21:10:00,53.6,49.5,30.04,NNW,337,9.0,9.0,86,0.00,,,0.00,Wunderground v.1.15,2013-07-24 05:10:00,
2013-07-23 21:20:00,53.6,49.5,30.04,North,351,9.0,12.0,86,0.00,,,0.00,Wunderground v.1.15,2013-07-24 05:20:00,
2013-07-23 21:25:00,53.3,49.2,30.04,North,354,10.0,14.0,86,0.00,,,0.00,Wunderground v.1.15,2013-07-24 05:25:00,
2013-07-23 21:35:00,53.1,49.0,30.05,North,2,10.0,11.0,86,0.00,,,0.00,Wunderground v.1.15,2013-07-24 05:35:00,
2013-07-23 21:45:00,53.3,49.2,30.05,NNW,348,8.0,11.0,86,0.00,,,0.00,Wunderground v.1.15,2013-07-24 05:45:00,
2013-07-23 21:55:00,52.8,49.0,30.05,North,358,9.0,11.0,87,0.00,,,0.00,Wunderground v.1.15,2013-07-24 05:55:00,
2013-07-23 22:05:00,52.8,49.0,30.05,North,354,8.0,11.0,87,0.00,,,0.00,Wunderground v.1.15,2013-07-24 06:05:00,
2013-07-23 22:15:00,52.5,49.4,30.04,North,358,7.0,8.0,89,0.00,,,0.00,Wunderground v.1.15,2013-07-24 06:15:00,
2013-07-23 22:25:00,52.0,49.2,30.04,NNW,348,7.0,8.0,90,0.00,,,0.00,Wunderground v.1.15,2013-07-24 06:25:00,
2013-07-23 22:35:00,51.6,49.1,30.05,NNW,342,7.0,8.0,91,0.00,,,0.00,Wunderground v.1.15,2013-07-24 06:35:00,
2013-07-23 22:40:00,51.0,48.8,30.05,NNW,340,7.0,7.0,92,0.00,,,0.00,Wunderground v.1.15,2013-07-24 06:40:00,
2013-07-23 22:50:00,50.2,48.8,30.05,NNW,335,7.0,8.0,95,0.00,,,0.00,Wunderground v.1.15,2013-07-24 06:50:00,
2013-07-23 22:55:00,49.8,49.0,30.05,NNW,342,8.0,9.0,97,0.00,,,0.00,Wunderground v.1.15,2013-07-24 06:55:00,
2013-07-23 23:05:00,49.2,49.2,30.05,NNW,340,9.0,9.0,100,0.00,,,0.00,Wunderground v.1.15,2013-07-24 07:05:00,
2013-07-23 23:15:00,49.2,49.2,30.05,North,349,7.0,8.0,100,0.00,,,0.00,Wunderground v.1.15,2013-07-24 07:15:00,
2013-07-23 23:20:00,49.1,49.1,30.05,NNW,341,6.0,7.0,100,0.00,,,0.00,Wunderground v.1.15,2013-07-24 07:20:00,
2013-07-23 23:30:00,48.8,48.8,30.05,NNW,341,6.0,6.0,100,0.00,,,0.00,Wunderground v.1.15,2013-07-24 07:30:00,
2013-07-23 23:40:00,48.8,48.8,30.05,NNW,334,5.0,5.0,100,0.00,,,0.00,Wunderground v.1.15,2013-07-24 07:40:00,
2013-07-23 23:45:00,48.9,48.9,30.06,NNW,334,3.0,5.0,100,0.00,,,0.00,Wunderground v.1.15,2013-07-24 07:45:00,
2013-07-23 23:55:00,48.6,48.6,30.06,NNW,335,2.0,3.0,100,0.00,,,0.00,Wunderground v.1.15,2013-07-24 07:55:00,